Time;durP1;ratioP1;P1;durP2;ratioP2;P2;SDS_P1;SDS_P2;PMS_P1;PMS_P2;Temp;Humidity;BMP_temperature;BMP_pressure;BME280_temperature;BME280_humidity;BME280_pressure;Samples;Min_cycle;Max_cycle;Signal;HPM_P1;HPM_P2
2024/02/29 00:02:16;;;;;;;22.77;12.55;;;;;;;;;;10064542;28;20049;-77
2024/02/29 00:07:10;;;;;;;26.65;12.68;;;;;;;;;;10058533;28;20049;-76
2024/02/29 00:12:05;;;;;;;21.15;10.68;;;;;;;;;;10064537;28;20049;-77
2024/02/29 00:17:00;;;;;;;17.88;11.25;;;;;;;;;;10065816;28;20076;-79
2024/02/29 00:21:55;;;;;;;21.60;11.70;;;;;;;;;;10065702;28;20106;-78
2024/02/29 00:26:49;;;;;;;23.60;9.88;;;;;;;;;;10065097;28;20087;-78
2024/02/29 00:31:45;;;;;;;19.70;12.77;;;;;;;;;;10065579;28;20042;-77
2024/02/29 00:36:39;;;;;;;20.67;12.73;;;;;;;;;;10065436;28;20053;-77
2024/02/29 00:41:33;;;;;;;22.10;9.82;;;;;;;;;;10064420;28;20390;-77
2024/02/29 00:46:28;;;;;;;17.92;9.70;;;;;;;;;;10061506;28;20042;-78
2024/02/29 00:51:22;;;;;;;20.83;11.82;;;;;;;;;;10052895;28;20049;-75
2024/02/29 00:56:16;;;;;;;19.60;11.32;;;;;;;;;;10052600;28;20041;-77
2024/02/29 01:01:10;;;;;;;20.65;10.48;;;;;;;;;;10058340;28;20121;-77
2024/02/29 01:06:07;;;;;;;16.45;9.45;;;;;;;;;;10056996;28;20053;-77
2024/02/29 01:11:00;;;;;;;16.95;11.00;;;;;;;;;;10060366;28;20045;-77
2024/02/29 01:15:54;;;;;;;23.27;11.68;;;;;;;;;;10055153;28;20049;-77
2024/02/29 01:20:47;;;;;;;17.58;9.23;;;;;;;;;;10059156;28;20052;-76
2024/02/29 01:25:41;;;;;;;17.13;9.68;;;;;;;;;;10056352;28;20121;-77
2024/02/29 01:30:35;;;;;;;22.50;11.13;;;;;;;;;;10066437;28;20050;-77
2024/02/29 01:35:29;;;;;;;29.00;10.25;;;;;;;;;;10062076;28;20076;-77
2024/02/29 01:40:23;;;;;;;17.33;10.30;;;;;;;;;;10057127;28;20128;-78
2024/02/29 01:45:17;;;;;;;19.05;11.57;;;;;;;;;;10057215;28;20050;-76
2024/02/29 01:50:12;;;;;;;16.42;9.27;;;;;;;;;;10057214;28;20045;-76
2024/02/29 01:55:08;;;;;;;20.95;10.63;;;;;;;;;;10056949;28;20104;-77
2024/02/29 02:00:04;;;;;;;20.25;11.00;;;;;;;;;;10062022;28;20049;-76
2024/02/29 02:05:00;;;;;;;14.82;10.32;;;;;;;;;;10057033;28;20577;-76
2024/02/29 02:09:55;;;;;;;17.20;10.70;;;;;;;;;;10064288;28;20049;-76
2024/02/29 02:14:50;;;;;;;18.73;10.73;;;;;;;;;;10060371;28;20045;-77
2024/02/29 02:19:44;;;;;;;22.98;11.80;;;;;;;;;;10062969;28;20124;-76
2024/02/29 02:24:39;;;;;;;16.80;11.32;;;;;;;;;;10062223;28;20060;-77
2024/02/29 02:29:33;;;;;;;24.17;10.85;;;;;;;;;;10058286;28;20073;-77
2024/02/29 02:34:27;;;;;;;18.88;12.50;;;;;;;;;;10063163;28;20060;-76
2024/02/29 02:39:21;;;;;;;17.67;11.98;;;;;;;;;;10056754;28;20509;-77
2024/02/29 02:44:17;;;;;;;17.50;11.57;;;;;;;;;;10055516;28;20509;-77
2024/02/29 02:49:10;;;;;;;18.35;12.75;;;;;;;;;;10063580;28;20053;-77
2024/02/29 02:54:05;;;;;;;29.27;13.85;;;;;;;;;;10059856;28;20558;-77
2024/02/29 02:58:59;;;;;;;18.98;13.45;;;;;;;;;;10063200;28;20064;-78
2024/02/29 03:03:53;;;;;;;28.05;14.10;;;;;;;;;;10047731;28;20097;-78
2024/02/29 03:08:47;;;;;;;24.92;14.73;;;;;;;;;;10064153;28;20066;-77
2024/02/29 03:13:41;;;;;;;21.77;13.57;;;;;;;;;;10051183;28;20072;-76
2024/02/29 03:18:35;;;;;;;24.83;15.07;;;;;;;;;;10057895;28;20050;-76
2024/02/29 03:23:29;;;;;;;27.55;13.63;;;;;;;;;;10065420;28;20501;-77
2024/02/29 03:28:25;;;;;;;20.08;14.75;;;;;;;;;;10063519;28;20050;-77
2024/02/29 03:33:19;;;;;;;27.00;15.77;;;;;;;;;;10063608;28;20127;-77
2024/02/29 03:38:14;;;;;;;26.85;15.20;;;;;;;;;;10056579;28;20091;-78
2024/02/29 03:43:08;;;;;;;25.27;15.20;;;;;;;;;;10062017;28;20045;-76
2024/02/29 03:48:03;;;;;;;24.35;13.73;;;;;;;;;;10059162;28;20053;-76
2024/02/29 03:52:58;;;;;;;29.67;14.70;;;;;;;;;;10061649;28;20088;-77
2024/02/29 03:57:51;;;;;;;26.30;15.07;;;;;;;;;;10051553;28;20104;-76
2024/02/29 04:02:46;;;;;;;27.45;15.07;;;;;;;;;;10053296;28;20045;-77
2024/02/29 04:07:41;;;;;;;27.20;14.68;;;;;;;;;;10056829;28;20091;-77
2024/02/29 04:12:35;;;;;;;29.73;17.25;;;;;;;;;;10055674;28;20046;-77
2024/02/29 04:17:32;;;;;;;21.73;14.82;;;;;;;;;;10058966;28;20057;-77
2024/02/29 04:22:26;;;;;;;20.00;14.15;;;;;;;;;;10058890;28;20045;-77
2024/02/29 04:27:21;;;;;;;23.52;13.77;;;;;;;;;;10057810;28;20060;-77
2024/02/29 04:32:15;;;;;;;22.70;13.68;;;;;;;;;;10055557;28;20145;-76
2024/02/29 04:37:10;;;;;;;25.88;15.60;;;;;;;;;;10058802;28;20042;-76
2024/02/29 04:42:05;;;;;;;33.28;14.13;;;;;;;;;;10053540;28;20052;-76
2024/02/29 04:47:01;;;;;;;25.90;13.35;;;;;;;;;;10055225;28;20085;-77
2024/02/29 04:51:54;;;;;;;22.98;15.60;;;;;;;;;;10051191;28;20141;-77
2024/02/29 04:56:49;;;;;;;35.88;16.02;;;;;;;;;;10059136;28;20076;-77
2024/02/29 05:01:43;;;;;;;33.22;16.05;;;;;;;;;;10064478;28;20399;-78
2024/02/29 05:06:38;;;;;;;20.70;13.32;;;;;;;;;;10065727;28;20164;-78
2024/02/29 05:11:32;;;;;;;26.60;16.92;;;;;;;;;;10067999;28;20116;-77
2024/02/29 05:16:29;;;;;;;34.40;17.90;;;;;;;;;;10059729;28;20061;-77
2024/02/29 05:21:23;;;;;;;23.63;18.70;;;;;;;;;;10056547;28;20049;-77
2024/02/29 05:26:18;;;;;;;28.70;15.70;;;;;;;;;;10068947;28;20049;-79
2024/02/29 05:31:13;;;;;;;31.38;15.75;;;;;;;;;;10065963;28;20049;-78
2024/02/29 05:36:07;;;;;;;25.08;15.77;;;;;;;;;;10057288;28;20067;-78
2024/02/29 05:41:03;;;;;;;26.40;16.30;;;;;;;;;;10056712;28;20509;-78
2024/02/29 05:45:57;;;;;;;28.98;15.93;;;;;;;;;;10064417;28;20046;-78
2024/02/29 05:50:51;;;;;;;27.55;18.60;;;;;;;;;;10062874;28;20049;-78
2024/02/29 05:55:46;;;;;;;25.80;17.02;;;;;;;;;;10049661;28;20053;-78
2024/02/29 06:00:40;;;;;;;29.73;17.17;;;;;;;;;;10063613;28;20064;-78
2024/02/29 06:05:35;;;;;;;30.92;20.08;;;;;;;;;;10065500;28;20046;-79
2024/02/29 06:10:30;;;;;;;31.15;18.95;;;;;;;;;;10068732;28;20065;-78
2024/02/29 06:15:24;;;;;;;29.35;19.30;;;;;;;;;;10070116;28;20103;-76
2024/02/29 06:20:18;;;;;;;28.58;18.33;;;;;;;;;;10045052;28;20092;-77
2024/02/29 06:25:13;;;;;;;35.92;18.90;;;;;;;;;;10057826;28;20050;-76
2024/02/29 06:30:09;;;;;;;38.55;28.70;;;;;;;;;;10063405;28;20049;-77
2024/02/29 06:35:05;;;;;;;33.97;23.00;;;;;;;;;;10069587;28;20083;-77
2024/02/29 06:40:00;;;;;;;30.42;17.95;;;;;;;;;;10069736;28;20049;-76
2024/02/29 06:44:53;;;;;;;31.52;18.23;;;;;;;;;;10060697;28;20059;-75
2024/02/29 06:49:47;;;;;;;39.15;18.83;;;;;;;;;;10053440;28;20050;-75
2024/02/29 06:54:44;;;;;;;30.27;18.73;;;;;;;;;;10064231;28;20045;-76
2024/02/29 06:59:38;;;;;;;30.75;18.25;;;;;;;;;;10061838;28;20053;-75
2024/02/29 07:04:32;;;;;;;27.42;17.42;;;;;;;;;;10067917;28;20057;-76
2024/02/29 07:09:26;;;;;;;21.85;16.63;;;;;;;;;;10066857;28;20417;-75
2024/02/29 07:14:21;;;;;;;29.35;18.10;;;;;;;;;;10065068;28;20049;-75
2024/02/29 07:19:15;;;;;;;29.50;17.90;;;;;;;;;;10056339;28;20053;-75
2024/02/29 07:24:09;;;;;;;26.73;18.45;;;;;;;;;;10058178;28;20081;-75
2024/02/29 07:29:04;;;;;;;23.20;16.95;;;;;;;;;;10062698;28;20128;-76
2024/02/29 07:33:59;;;;;;;26.92;21.17;;;;;;;;;;10056848;28;20104;-75
2024/02/29 07:38:53;;;;;;;27.38;18.48;;;;;;;;;;10059925;28;20049;-75
2024/02/29 07:43:48;;;;;;;41.05;19.85;;;;;;;;;;10059764;28;20425;-76
2024/02/29 07:48:42;;;;;;;29.02;19.20;;;;;;;;;;10052519;28;20053;-75
2024/02/29 07:53:36;;;;;;;27.17;19.23;;;;;;;;;;10060137;28;20095;-77
2024/02/29 07:58:30;;;;;;;31.88;22.42;;;;;;;;;;10064431;28;20045;-77
2024/02/29 08:03:24;;;;;;;28.70;18.67;;;;;;;;;;10062996;28;20057;-77
2024/02/29 08:08:19;;;;;;;51.10;19.23;;;;;;;;;;10046056;28;20132;-75
2024/02/29 08:13:13;;;;;;;21.05;18.70;;;;;;;;;;10047153;28;20049;-75
2024/02/29 08:18:07;;;;;;;22.60;18.10;;;;;;;;;;10044201;28;20050;-76
2024/02/29 08:23:02;;;;;;;21.17;18.27;;;;;;;;;;10060304;28;20821;-76
2024/02/29 08:27:55;;;;;;;24.95;18.02;;;;;;;;;;10060981;28;20045;-76
2024/02/29 08:32:50;;;;;;;22.45;17.33;;;;;;;;;;10063603;28;20115;-76
2024/02/29 08:37:44;;;;;;;25.02;17.92;;;;;;;;;;10067937;28;20520;-76
2024/02/29 08:42:38;;;;;;;34.13;20.52;;;;;;;;;;10054825;28;20517;-77
2024/02/29 08:47:32;;;;;;;28.77;18.38;;;;;;;;;;10068160;28;20094;-76
2024/02/29 08:52:26;;;;;;;26.42;19.58;;;;;;;;;;10070894;28;20421;-77
2024/02/29 08:57:20;;;;;;;27.23;19.98;;;;;;;;;;10067859;28;20096;-77
2024/02/29 09:02:14;;;;;;;22.92;18.58;;;;;;;;;;10065119;28;20045;-76
2024/02/29 09:07:07;;;;;;;33.90;21.00;;;;;;;;;;10066908;28;20045;-78
2024/02/29 09:12:01;;;;;;;24.13;19.17;;;;;;;;;;10068106;28;20920;-77
2024/02/29 09:16:55;;;;;;;28.80;18.15;;;;;;;;;;10068447;28;20052;-77
2024/02/29 09:21:49;;;;;;;26.73;18.30;;;;;;;;;;10067806;28;20049;-77
2024/02/29 09:26:44;;;;;;;27.02;20.50;;;;;;;;;;10055528;28;20480;-77
2024/02/29 09:31:45;;;;;;;27.88;17.95;;;;;;;;;;10065202;28;20048;-77
2024/02/29 09:36:39;;;;;;;25.80;19.30;;;;;;;;;;10057372;28;20075;-77
2024/02/29 09:41:33;;;;;;;26.88;23.05;;;;;;;;;;10063299;28;20065;-77
2024/02/29 09:46:50;;;;;;;31.98;23.38;;;;;;;;;;10062643;28;20064;-77
2024/02/29 09:52:04;;;;;;;30.90;21.60;;;;;;;;;;10065427;28;20064;-77
2024/02/29 09:56:57;;;;;;;31.50;22.55;;;;;;;;;;10063102;28;20053;-75
2024/02/29 10:01:57;;;;;;;29.95;23.10;;;;;;;;;;10064568;28;20053;-77
2024/02/29 10:06:52;;;;;;;27.02;21.55;;;;;;;;;;10064629;28;20055;-77
2024/02/29 10:11:50;;;;;;;28.33;23.10;;;;;;;;;;10062432;28;20064;-76
2024/02/29 10:16:43;;;;;;;25.23;21.95;;;;;;;;;;10067210;28;20405;-77
2024/02/29 10:21:37;;;;;;;35.80;30.40;;;;;;;;;;10057784;28;20121;-75
2024/02/29 10:26:32;;;;;;;32.22;23.15;;;;;;;;;;10065449;28;20120;-77
2024/02/29 10:31:26;;;;;;;37.10;25.52;;;;;;;;;;10063305;28;20052;-78
2024/02/29 10:36:21;;;;;;;29.45;23.27;;;;;;;;;;10058400;28;20041;-76
2024/02/29 10:41:15;;;;;;;28.77;22.15;;;;;;;;;;10051342;28;20417;-77
2024/02/29 10:46:10;;;;;;;35.55;25.08;;;;;;;;;;10049979;28;20053;-78
2024/02/29 10:51:22;;;;;;;29.02;23.23;;;;;;;;;;10046967;28;20085;-75
2024/02/29 10:56:25;;;;;;;32.92;20.77;;;;;;;;;;10049381;28;20077;-76
2024/02/29 11:01:20;;;;;;;31.65;20.65;;;;;;;;;;10046516;28;20559;-76
2024/02/29 11:06:15;;;;;;;27.30;19.35;;;;;;;;;;10052564;28;20050;-75
2024/02/29 11:11:13;;;;;;;23.45;20.75;;;;;;;;;;10055359;28;20061;-75
2024/02/29 11:16:10;;;;;;;31.05;20.23;;;;;;;;;;10066538;28;20055;-75
2024/02/29 11:21:06;;;;;;;27.30;19.17;;;;;;;;;;10061545;28;20057;-75
2024/02/29 11:26:01;;;;;;;25.63;18.83;;;;;;;;;;10067030;28;20060;-76
2024/02/29 11:30:55;;;;;;;22.35;17.30;;;;;;;;;;10060602;28;20045;-75
2024/02/29 11:35:50;;;;;;;27.77;19.05;;;;;;;;;;10066941;28;20060;-75
2024/02/29 11:40:44;;;;;;;24.83;18.60;;;;;;;;;;10066403;28;20144;-76
2024/02/29 11:45:38;;;;;;;23.17;18.00;;;;;;;;;;10065064;28;20478;-75
2024/02/29 11:50:32;;;;;;;23.25;19.17;;;;;;;;;;10066308;28;20075;-77
2024/02/29 11:55:27;;;;;;;27.70;19.17;;;;;;;;;;10066462;28;20068;-75
2024/02/29 12:00:21;;;;;;;30.60;20.45;;;;;;;;;;10062550;28;20056;-75
2024/02/29 12:05:16;;;;;;;21.90;16.05;;;;;;;;;;10060427;28;20061;-75
2024/02/29 12:10:12;;;;;;;25.95;17.90;;;;;;;;;;10055667;28;20445;-75
2024/02/29 12:15:07;;;;;;;21.50;17.60;;;;;;;;;;10056638;28;20041;-76
2024/02/29 12:20:00;;;;;;;28.60;18.25;;;;;;;;;;10059144;28;20054;-76
2024/02/29 12:24:57;;;;;;;24.42;16.98;;;;;;;;;;10064909;28;20052;-76
2024/02/29 12:29:51;;;;;;;26.83;18.20;;;;;;;;;;10065438;28;20049;-76
2024/02/29 12:34:46;;;;;;;30.05;18.63;;;;;;;;;;10057148;28;20053;-76
2024/02/29 12:39:40;;;;;;;27.40;19.23;;;;;;;;;;10062789;28;20052;-77
2024/02/29 12:44:36;;;;;;;29.83;19.17;;;;;;;;;;10064259;28;20174;-76
2024/02/29 12:49:31;;;;;;;25.60;19.08;;;;;;;;;;10063809;28;20108;-76
2024/02/29 12:54:26;;;;;;;24.27;17.77;;;;;;;;;;10054101;28;20057;-76
2024/02/29 12:59:20;;;;;;;21.88;16.55;;;;;;;;;;10049445;28;20057;-76
2024/02/29 13:04:16;;;;;;;21.58;16.83;;;;;;;;;;10064770;28;20080;-75
2024/02/29 13:09:12;;;;;;;23.50;17.00;;;;;;;;;;10058659;28;20049;-75
2024/02/29 13:14:06;;;;;;;23.60;15.18;;;;;;;;;;10045013;28;20061;-76
2024/02/29 13:19:00;;;;;;;27.33;15.75;;;;;;;;;;10053522;28;20049;-76
2024/02/29 13:23:54;;;;;;;23.02;15.23;;;;;;;;;;10069190;28;20049;-76
2024/02/29 13:28:49;;;;;;;21.55;15.38;;;;;;;;;;10064354;28;20080;-76
2024/02/29 13:33:43;;;;;;;23.05;15.57;;;;;;;;;;10072069;28;20053;-76
2024/02/29 13:38:37;;;;;;;23.40;14.82;;;;;;;;;;10067299;28;20497;-77
2024/02/29 13:43:31;;;;;;;21.63;16.85;;;;;;;;;;10064062;28;20053;-77
2024/02/29 13:48:25;;;;;;;28.77;15.85;;;;;;;;;;10070843;28;20072;-78
2024/02/29 13:53:19;;;;;;;21.95;15.02;;;;;;;;;;10070638;28;20155;-77
2024/02/29 13:58:13;;;;;;;30.15;20.67;;;;;;;;;;10066330;28;20045;-76
2024/02/29 14:03:07;;;;;;;22.80;16.80;;;;;;;;;;10070088;28;20133;-76
2024/02/29 14:08:01;;;;;;;22.75;17.13;;;;;;;;;;10062805;28;20057;-76
2024/02/29 14:12:55;;;;;;;18.70;15.70;;;;;;;;;;10059954;28;20075;-75
2024/02/29 14:17:50;;;;;;;27.05;17.05;;;;;;;;;;10066013;28;20050;-75
2024/02/29 14:22:45;;;;;;;22.60;14.82;;;;;;;;;;10067168;28;20061;-75
2024/02/29 14:27:38;;;;;;;26.65;15.25;;;;;;;;;;10068285;28;20386;-76
2024/02/29 14:32:33;;;;;;;23.45;15.55;;;;;;;;;;10066529;28;20064;-76
2024/02/29 14:37:26;;;;;;;30.98;17.27;;;;;;;;;;10067504;28;20042;-75
2024/02/29 14:42:20;;;;;;;30.35;17.67;;;;;;;;;;10065833;28;20088;-77
2024/02/29 14:47:14;;;;;;;21.90;18.65;;;;;;;;;;10067256;28;20136;-76
2024/02/29 14:52:08;;;;;;;29.25;18.98;;;;;;;;;;10068101;28;20540;-76
2024/02/29 14:57:01;;;;;;;28.92;17.83;;;;;;;;;;10062320;28;20509;-76
2024/02/29 15:01:54;;;;;;;27.35;20.95;;;;;;;;;;10061875;28;20466;-76
2024/02/29 15:06:48;;;;;;;34.05;24.98;;;;;;;;;;10060347;28;20569;-76
2024/02/29 15:11:45;;;;;;;33.78;23.58;;;;;;;;;;10063093;28;20054;-76
2024/02/29 15:16:39;;;;;;;30.85;24.23;;;;;;;;;;10061578;28;20555;-76
2024/02/29 15:21:33;;;;;;;40.50;22.85;;;;;;;;;;10050807;28;20092;-74
2024/02/29 15:26:27;;;;;;;37.03;23.20;;;;;;;;;;10066078;28;20100;-75
2024/02/29 15:31:22;;;;;;;43.10;23.77;;;;;;;;;;10065472;28;20060;-76
2024/02/29 15:36:15;;;;;;;41.95;30.23;;;;;;;;;;10064994;28;20408;-75
2024/02/29 15:41:09;;;;;;;43.60;29.10;;;;;;;;;;10063283;28;20053;-75
2024/02/29 15:46:02;;;;;;;44.03;28.50;;;;;;;;;;10051558;28;20049;-75
2024/02/29 15:50:57;;;;;;;44.40;29.35;;;;;;;;;;10062785;28;20452;-76
2024/02/29 15:55:51;;;;;;;40.45;31.23;;;;;;;;;;10063719;28;20045;-74
2024/02/29 16:00:48;;;;;;;37.67;25.13;;;;;;;;;;10047806;28;20521;-77
2024/02/29 16:05:42;;;;;;;33.42;21.95;;;;;;;;;;10062573;28;20519;-76
2024/02/29 16:10:36;;;;;;;37.03;22.42;;;;;;;;;;10060403;28;20056;-76
2024/02/29 16:15:29;;;;;;;29.90;21.48;;;;;;;;;;10055396;28;20452;-75
2024/02/29 16:20:23;;;;;;;30.05;21.70;;;;;;;;;;10058124;28;20398;-76
2024/02/29 16:25:18;;;;;;;31.13;23.00;;;;;;;;;;10063258;28;20445;-76
2024/02/29 16:30:12;;;;;;;34.50;22.95;;;;;;;;;;10059607;28;20480;-76
2024/02/29 16:35:09;;;;;;;40.30;23.40;;;;;;;;;;10063271;28;20054;-76
2024/02/29 16:40:05;;;;;;;26.00;21.20;;;;;;;;;;10063417;28;20429;-75
2024/02/29 16:44:59;;;;;;;31.27;20.48;;;;;;;;;;10056554;28;20041;-75
2024/02/29 16:49:53;;;;;;;30.67;20.75;;;;;;;;;;10061757;28;20054;-76
2024/02/29 16:54:48;;;;;;;32.10;21.85;;;;;;;;;;10066849;28;20393;-75
2024/02/29 16:59:43;;;;;;;28.63;21.10;;;;;;;;;;10044902;28;20132;-75
2024/02/29 17:04:38;;;;;;;28.55;20.50;;;;;;;;;;10069026;28;20049;-75
2024/02/29 17:09:31;;;;;;;26.27;21.13;;;;;;;;;;10064805;28;20129;-76
2024/02/29 17:14:28;;;;;;;28.30;21.42;;;;;;;;;;10066866;28;20076;-76
2024/02/29 17:19:21;;;;;;;31.88;21.13;;;;;;;;;;10064130;28;20198;-75
2024/02/29 17:24:20;;;;;;;27.08;20.33;;;;;;;;;;10066080;28;20058;-76
2024/02/29 17:29:14;;;;;;;30.08;20.92;;;;;;;;;;10064694;28;20085;-77
2024/02/29 17:34:08;;;;;;;26.92;22.52;;;;;;;;;;10058196;28;20057;-76
2024/02/29 17:39:04;;;;;;;25.23;21.67;;;;;;;;;;10065803;28;20050;-77
2024/02/29 17:44:00;;;;;;;33.03;21.17;;;;;;;;;;10063033;28;20096;-76
2024/02/29 17:48:54;;;;;;;31.23;23.38;;;;;;;;;;10066169;28;20115;-77
2024/02/29 17:53:48;;;;;;;30.27;24.05;;;;;;;;;;10057677;28;20128;-77
2024/02/29 17:58:43;;;;;;;33.33;25.48;;;;;;;;;;10052025;28;20050;-76
2024/02/29 18:03:40;;;;;;;31.25;21.55;;;;;;;;;;10058897;28;20573;-77
2024/02/29 18:08:33;;;;;;;36.83;27.17;;;;;;;;;;10057623;28;20083;-77
2024/02/29 18:13:28;;;;;;;32.28;23.83;;;;;;;;;;10048450;28;20069;-77
2024/02/29 18:18:22;;;;;;;30.25;22.35;;;;;;;;;;10067950;28;20060;-76
2024/02/29 18:23:15;;;;;;;29.65;22.60;;;;;;;;;;10058120;28;20107;-77
2024/02/29 18:28:10;;;;;;;31.25;22.33;;;;;;;;;;10053652;28;20053;-77
2024/02/29 18:33:04;;;;;;;34.67;24.50;;;;;;;;;;10065796;28;20057;-82
2024/02/29 18:37:59;;;;;;;36.40;24.77;;;;;;;;;;10066013;28;20509;-84
2024/02/29 18:42:53;;;;;;;38.00;23.58;;;;;;;;;;10068175;28;20497;-84
2024/02/29 18:47:47;;;;;;;41.20;25.02;;;;;;;;;;10064189;28;20049;-85
2024/02/29 18:52:42;;;;;;;35.03;24.33;;;;;;;;;;10059979;28;20053;-88
2024/02/29 18:57:37;;;;;;;27.77;23.70;;;;;;;;;;10059843;28;20076;-85
2024/02/29 19:02:31;;;;;;;34.70;26.27;;;;;;;;;;10056498;28;20049;-88
2024/02/29 19:07:25;;;;;;;39.08;27.23;;;;;;;;;;10052850;28;20053;-80
2024/02/29 19:12:22;;;;;;;41.38;25.27;;;;;;;;;;10063324;28;20045;-87
2024/02/29 19:17:16;;;;;;;33.72;23.77;;;;;;;;;;10057331;28;20128;-87
2024/02/29 19:22:09;;;;;;;32.45;21.85;;;;;;;;;;10056396;28;20057;-86
2024/02/29 19:27:04;;;;;;;34.22;23.65;;;;;;;;;;10059038;28;20046;-85
2024/02/29 19:31:58;;;;;;;38.33;25.27;;;;;;;;;;10058305;28;20076;-86
2024/02/29 19:36:52;;;;;;;39.78;25.30;;;;;;;;;;10060434;28;20057;-85
2024/02/29 19:41:46;;;;;;;31.20;25.02;;;;;;;;;;10061942;28;20095;-85
2024/02/29 19:46:44;;;;;;;30.65;24.30;;;;;;;;;;10059802;28;20045;-86
2024/02/29 19:51:42;;;;;;;37.83;26.17;;;;;;;;;;10057373;28;20839;-87
2024/02/29 19:56:38;;;;;;;36.25;26.25;;;;;;;;;;10062389;28;20045;-87
2024/02/29 20:01:33;;;;;;;37.78;27.55;;;;;;;;;;10046829;28;20092;-85
2024/02/29 20:06:26;;;;;;;45.28;26.92;;;;;;;;;;10055418;28;20058;-86
2024/02/29 20:11:20;;;;;;;38.47;25.45;;;;;;;;;;10057105;28;20080;-74
2024/02/29 20:16:15;;;;;;;35.17;24.60;;;;;;;;;;10048222;28;20563;-86
2024/02/29 20:21:09;;;;;;;36.08;24.52;;;;;;;;;;10046698;28;20060;-86
2024/02/29 20:26:03;;;;;;;36.58;25.17;;;;;;;;;;10050728;28;20136;-84
2024/02/29 20:30:57;;;;;;;46.85;27.58;;;;;;;;;;10046201;28;20061;-85
2024/02/29 20:35:51;;;;;;;44.22;26.90;;;;;;;;;;10065819;28;20060;-85
2024/02/29 20:40:47;;;;;;;41.78;27.98;;;;;;;;;;10053884;28;20052;-84
2024/02/29 20:45:41;;;;;;;36.95;25.25;;;;;;;;;;10057961;28;20464;-85
2024/02/29 20:50:35;;;;;;;38.78;27.58;;;;;;;;;;10057073;28;20153;-86
2024/02/29 20:55:34;;;;;;;41.92;28.02;;;;;;;;;;10061617;28;20056;-86
2024/02/29 21:00:32;;;;;;;35.92;26.88;;;;;;;;;;10063987;28;20103;-84
2024/02/29 21:05:26;;;;;;;41.53;29.88;;;;;;;;;;10061326;28;20394;-85
2024/02/29 21:10:20;;;;;;;52.38;31.10;;;;;;;;;;10062684;28;20104;-87
2024/02/29 21:15:15;;;;;;;44.67;28.60;;;;;;;;;;10063549;28;20417;-87
2024/02/29 21:20:12;;;;;;;38.88;28.20;;;;;;;;;;10047719;28;20064;-79
2024/02/29 21:25:08;;;;;;;48.72;29.50;;;;;;;;;;10056983;28;20051;-80
2024/02/29 21:30:05;;;;;;;52.88;30.45;;;;;;;;;;10061280;28;20067;-79
2024/02/29 21:34:59;;;;;;;50.03;29.05;;;;;;;;;;10058864;28;20045;-79
2024/02/29 21:39:54;;;;;;;44.75;30.98;;;;;;;;;;10062326;28;20052;-80
2024/02/29 21:44:48;;;;;;;55.20;31.98;;;;;;;;;;10068513;28;20075;-80
2024/02/29 21:49:42;;;;;;;44.72;31.15;;;;;;;;;;10058305;28;20045;-80
2024/02/29 21:54:39;;;;;;;57.70;32.13;;;;;;;;;;10065515;28;20088;-80
2024/02/29 21:59:34;;;;;;;49.35;30.08;;;;;;;;;;10058208;28;20057;-80
2024/02/29 22:04:28;;;;;;;43.67;30.80;;;;;;;;;;10047876;28;20092;-80
2024/02/29 22:09:24;;;;;;;47.42;31.23;;;;;;;;;;10067668;28;20065;-80
2024/02/29 22:14:18;;;;;;;38.72;31.55;;;;;;;;;;10053904;28;20080;-79
2024/02/29 22:19:15;;;;;;;48.45;31.15;;;;;;;;;;10065862;28;20057;-82
2024/02/29 22:24:10;;;;;;;47.53;31.05;;;;;;;;;;10063638;28;20061;-80
2024/02/29 22:29:06;;;;;;;49.47;30.25;;;;;;;;;;10054365;28;20417;-81
2024/02/29 22:34:01;;;;;;;52.55;29.77;;;;;;;;;;10065907;28;20095;-82
2024/02/29 22:38:55;;;;;;;46.50;30.33;;;;;;;;;;10061199;28;20083;-81
2024/02/29 22:43:49;;;;;;;51.15;30.35;;;;;;;;;;10066843;28;20061;-85
2024/02/29 22:48:43;;;;;;;37.55;28.27;;;;;;;;;;10060309;28;20468;-85
2024/02/29 22:53:37;;;;;;;50.53;27.77;;;;;;;;;;10049935;28;20061;-87
2024/02/29 22:58:33;;;;;;;45.60;29.67;;;;;;;;;;10062494;28;20054;-84
2024/02/29 23:03:26;;;;;;;41.47;26.38;;;;;;;;;;10066474;28;20416;-83
2024/02/29 23:08:21;;;;;;;45.78;27.50;;;;;;;;;;10061469;28;20057;-84
2024/02/29 23:13:15;;;;;;;45.95;29.63;;;;;;;;;;10066464;28;20444;-84
2024/02/29 23:18:09;;;;;;;46.88;29.60;;;;;;;;;;10060249;28;20045;-86
2024/02/29 23:23:03;;;;;;;42.67;29.38;;;;;;;;;;10064928;28;20061;-85
2024/02/29 23:27:58;;;;;;;37.35;26.88;;;;;;;;;;10066390;28;20501;-86
2024/02/29 23:32:52;;;;;;;48.20;29.95;;;;;;;;;;10064983;28;20162;-85
2024/02/29 23:37:48;;;;;;;53.22;28.73;;;;;;;;;;10062183;28;20053;-84
2024/02/29 23:42:44;;;;;;;44.78;27.65;;;;;;;;;;10069279;28;20077;-87
2024/02/29 23:47:39;;;;;;;53.28;30.98;;;;;;;;;;10057246;28;20049;-85
2024/02/29 23:52:33;;;;;;;46.80;28.30;;;;;;;;;;10053910;28;20056;-83
2024/02/29 23:57:27;;;;;;;48.78;29.35;;;;;;;;;;10051328;28;20506;-83
